Time;durP1;ratioP1;P1;durP2;ratioP2;P2;SDS_P1;SDS_P2;PMS_P1;PMS_P2;Temp;Humidity;BMP_temperature;BMP_pressure;BME280_temperature;BME280_humidity;BME280_pressure;Samples;Min_cycle;Max_cycle;Signal;HPM_P1;HPM_P2
2022/05/07 00:00:14;;;;;;;14.20;5.13;;;;;;;9.72;nan;102286.97;5034009;28;20126;-50
2022/05/07 00:02:39;;;;;;;10.23;6.20;;;;;;;9.69;nan;102285.50;5042678;28;20029;-51
2022/05/07 00:05:05;;;;;;;11.35;6.90;;;;;;;9.58;nan;102284.28;5045363;28;20056;-50
2022/05/07 00:07:31;;;;;;;12.00;6.32;;;;;;;9.54;nan;102287.56;5047580;28;20470;-49
2022/05/07 00:09:56;;;;;;;15.38;6.65;;;;;;;9.55;nan;102283.88;5046029;28;20033;-48
2022/05/07 00:12:22;;;;;;;10.45;5.80;;;;;;;9.57;nan;102284.50;5042992;28;20037;-48
2022/05/07 00:14:47;;;;;;;14.38;6.60;;;;;;;9.59;nan;102280.56;5044188;28;20074;-51
2022/05/07 00:19:56;;;;;;;12.63;6.32;;;;;;;9.63;nan;102278.31;5043269;28;20035;-51
2022/05/07 00:22:22;;;;;;;14.73;7.05;;;;;;;9.64;nan;102266.56;5044074;28;20021;-48
2022/05/07 00:24:49;;;;;;;15.35;7.32;;;;;;;9.63;nan;102264.94;5041482;28;20027;-48
2022/05/07 00:27:14;;;;;;;11.50;7.13;;;;;;;9.61;nan;102266.97;5037995;28;20029;-54
2022/05/07 00:29:40;;;;;;;13.48;6.35;;;;;;;9.59;nan;102269.03;5038545;28;20399;-49
2022/05/07 00:32:06;;;;;;;26.05;6.95;;;;;;;9.55;nan;102265.97;5038265;28;20033;-54
2022/05/07 00:34:31;;;;;;;21.00;6.45;;;;;;;9.53;nan;102269.88;5032731;28;20037;-51
2022/05/07 00:36:57;;;;;;;33.03;7.50;;;;;;;9.53;nan;102264.53;5040355;28;20033;-51
2022/05/07 00:39:24;;;;;;;25.35;6.05;;;;;;;9.57;nan;102265.75;5035422;28;20028;-54
2022/05/07 00:41:49;;;;;;;22.90;6.45;;;;;;;9.59;nan;102266.38;5035673;28;20081;-49
2022/05/07 00:44:15;;;;;;;21.27;6.57;;;;;;;9.58;nan;102262.06;5039099;28;20036;-50
2022/05/07 00:46:40;;;;;;;21.38;5.97;;;;;;;9.59;nan;102264.53;5037216;28;20043;-49
2022/05/07 00:49:06;;;;;;;13.32;6.25;;;;;;;9.59;nan;102264.53;5052893;28;20064;-49
2022/05/07 00:51:35;;;;;;;17.10;6.65;;;;;;;9.60;nan;102260.81;5044932;28;20034;-51
2022/05/07 00:54:09;;;;;;;9.95;6.28;;;;;;;9.59;nan;102250.31;5044574;28;20417;-53
2022/05/07 00:56:36;;;;;;;11.27;6.65;;;;;;;9.61;nan;102256.28;5046278;28;20063;-50
2022/05/07 00:59:03;;;;;;;14.82;6.78;;;;;;;9.62;nan;102253.41;5038627;28;20066;-48
2022/05/07 01:01:28;;;;;;;16.13;7.20;;;;;;;9.64;nan;102250.50;5038853;28;20025;-51
2022/05/07 01:03:55;;;;;;;13.20;7.35;;;;;;;9.68;nan;102251.75;5038755;28;20052;-50
2022/05/07 01:06:22;;;;;;;19.73;7.38;;;;;;;9.70;nan;102252.38;5048958;28;20020;-52
2022/05/07 01:08:49;;;;;;;17.77;7.38;;;;;;;9.72;nan;102255.69;5043354;28;20025;-49
2022/05/07 01:11:19;;;;;;;18.70;8.18;;;;;;;9.75;nan;102247.25;5052653;28;20016;-50
2022/05/07 01:13:45;;;;;;;15.23;7.65;;;;;;;9.81;nan;102250.94;5039749;28;20021;-52
2022/05/07 01:16:14;;;;;;;15.23;7.47;;;;;;;9.83;nan;102246.19;5045640;28;20112;-52
2022/05/07 01:18:41;;;;;;;11.60;6.70;;;;;;;9.88;nan;102241.06;5046455;28;20134;-50
2022/05/07 01:21:09;;;;;;;15.07;8.23;;;;;;;9.92;nan;102236.94;5043905;28;20020;-54
2022/05/07 01:23:35;;;;;;;12.38;7.53;;;;;;;9.95;nan;102236.53;5044641;28;20525;-50
2022/05/07 01:26:00;;;;;;;13.18;7.45;;;;;;;9.96;nan;102239.00;5043589;28;20024;-48
2022/05/07 01:28:26;;;;;;;13.45;7.35;;;;;;;9.98;nan;102230.75;5032492;28;20066;-51
2022/05/07 01:30:51;;;;;;;19.17;7.57;;;;;;;9.99;nan;102224.34;5036450;28;20167;-53
2022/05/07 01:33:17;;;;;;;14.55;7.75;;;;;;;10.02;nan;102234.66;5035562;28;20029;-54
2022/05/07 01:35:42;;;;;;;12.82;7.00;;;;;;;10.06;nan;102233.22;5050358;28;20393;-53
2022/05/07 01:38:08;;;;;;;13.27;6.72;;;;;;;10.09;nan;102232.81;5043227;28;20324;-52
2022/05/07 01:40:33;;;;;;;12.00;6.05;;;;;;;10.11;nan;102230.72;5043939;28;20485;-51
2022/05/07 01:42:59;;;;;;;12.82;7.00;;;;;;;10.15;nan;102236.50;5036509;28;20052;-51
2022/05/07 01:45:24;;;;;;;10.35;5.85;;;;;;;10.17;nan;102239.78;5041774;28;20025;-51
2022/05/07 01:50:34;;;;;;;11.52;6.03;;;;;;;10.22;nan;102234.63;5048990;28;20051;-51
2022/05/07 01:52:59;;;;;;;13.35;6.50;;;;;;;10.23;nan;102242.50;5045171;28;20028;-51
2022/05/07 01:55:25;;;;;;;13.55;6.53;;;;;;;10.25;nan;102242.28;5038313;28;20485;-50
2022/05/07 01:57:50;;;;;;;10.20;5.80;;;;;;;10.26;nan;102238.56;5039300;28;20041;-51
2022/05/07 02:00:16;;;;;;;11.38;6.32;;;;;;;10.26;nan;102236.72;5042624;28;20025;-54
2022/05/07 02:02:42;;;;;;;17.80;6.47;;;;;;;10.27;nan;102234.84;5052730;28;20398;-50
2022/05/07 02:05:08;;;;;;;29.27;6.93;;;;;;;10.28;nan;102236.50;5054224;28;20099;-50
2022/05/07 02:07:34;;;;;;;23.33;7.55;;;;;;;10.28;nan;102231.16;5052024;28;20555;-53
2022/05/07 02:10:00;;;;;;;16.65;6.90;;;;;;;10.27;nan;102224.16;5042849;28;20457;-51
2022/05/07 02:12:25;;;;;;;21.48;7.47;;;;;;;10.27;nan;102229.50;5036012;28;20028;-51
2022/05/07 02:14:51;;;;;;;17.30;6.75;;;;;;;10.26;nan;102231.34;5041499;28;20025;-54
2022/05/07 02:17:16;;;;;;;12.55;6.25;;;;;;;10.24;nan;102232.59;5046008;28;20025;-53
2022/05/07 02:19:42;;;;;;;10.85;6.00;;;;;;;10.23;nan;102228.25;5047930;28;20052;-52
2022/05/07 02:22:07;;;;;;;13.20;6.72;;;;;;;10.21;nan;102233.00;5051350;28;20381;-51
2022/05/07 02:24:33;;;;;;;9.07;5.78;;;;;;;10.16;nan;102227.41;5046258;28;20033;-51
2022/05/07 02:27:00;;;;;;;9.50;6.38;;;;;;;10.11;nan;102229.91;5042391;28;20029;-50
2022/05/07 02:29:25;;;;;;;12.80;6.10;;;;;;;10.04;nan;102231.75;5053803;28;20032;-51
2022/05/07 02:32:06;;;;;;;10.27;5.85;;;;;;;10.00;nan;102228.69;5046578;28;20026;-51
2022/05/07 02:34:36;;;;;;;11.77;6.82;;;;;;;9.96;nan;102225.59;5053388;28;20038;-51
2022/05/07 02:37:03;;;;;;;10.30;6.50;;;;;;;9.94;nan;102219.63;5051748;28;20082;-49
2022/05/07 02:39:29;;;;;;;10.63;6.15;;;;;;;9.92;nan;102219.03;5050973;28;20036;-51
2022/05/07 02:44:39;;;;;;;10.05;6.47;;;;;;;9.89;nan;102219.44;5052401;28;20100;-49
2022/05/07 02:47:05;;;;;;;11.07;6.25;;;;;;;9.87;nan;102228.69;5047590;28;20036;-52
2022/05/07 02:49:34;;;;;;;12.30;7.25;;;;;;;9.85;nan;102223.53;5048902;28;20497;-50
2022/05/07 02:52:00;;;;;;;13.57;7.22;;;;;;;9.86;nan;102217.16;5056480;28;20028;-48
2022/05/07 02:54:26;;;;;;;16.10;6.95;;;;;;;9.85;nan;102203.97;5046599;28;20020;-49
2022/05/07 02:56:51;;;;;;;15.43;7.13;;;;;;;9.82;nan;102209.75;5036805;28;20029;-50
2022/05/07 02:59:17;;;;;;;16.75;7.97;;;;;;;9.79;nan;102216.34;5041893;28;20036;-53
2022/05/07 03:01:42;;;;;;;17.42;8.13;;;;;;;9.75;nan;102212.44;5044653;28;20056;-50
2022/05/07 03:04:09;;;;;;;16.40;7.70;;;;;;;9.70;nan;102220.28;5046211;28;21254;-48
2022/05/07 03:06:35;;;;;;;14.70;7.75;;;;;;;9.64;nan;102221.91;5049528;28;20071;-52
2022/05/07 03:09:01;;;;;;;18.85;8.00;;;;;;;9.55;nan;102225.00;5051840;28;20024;-49
2022/05/07 03:11:27;;;;;;;13.27;7.90;;;;;;;9.47;nan;102222.50;5053641;28;20109;-48
2022/05/07 03:13:52;;;;;;;15.55;7.80;;;;;;;9.38;nan;102228.06;5048077;28;20095;-50
2022/05/07 03:16:18;;;;;;;14.77;6.78;;;;;;;9.37;nan;102229.09;5055701;28;20398;-52
2022/05/07 03:18:43;;;;;;;11.80;7.50;;;;;;;9.38;nan;102225.41;5047534;28;20025;-54
2022/05/07 03:21:09;;;;;;;10.55;6.60;;;;;;;9.39;nan;102223.53;5048023;28;20032;-51
2022/05/07 03:23:34;;;;;;;12.30;6.88;;;;;;;9.36;nan;102215.94;5049325;28;20021;-48
2022/05/07 03:26:00;;;;;;;27.48;7.03;;;;;;;9.34;nan;102218.81;5046597;28;20052;-51
2022/05/07 03:28:25;;;;;;;23.23;7.90;;;;;;;9.32;nan;102220.03;5041124;28;20186;-48
2022/05/07 03:30:51;;;;;;;22.70;8.73;;;;;;;9.29;nan;102212.41;5037328;28;20033;-53
2022/05/07 03:33:17;;;;;;;19.92;7.90;;;;;;;9.27;nan;102220.63;5039017;28;20028;-53
2022/05/07 03:35:43;;;;;;;21.38;7.35;;;;;;;9.25;nan;102220.03;5038550;28;20091;-54
2022/05/07 03:38:10;;;;;;;23.17;7.32;;;;;;;9.26;nan;102221.66;5036883;28;20028;-49
2022/05/07 03:40:35;;;;;;;24.92;7.97;;;;;;;9.28;nan;102222.28;5055258;28;20020;-55
2022/05/07 03:43:03;;;;;;;20.45;7.63;;;;;;;9.31;nan;102221.88;5048489;28;20027;-51
2022/05/07 03:45:29;;;;;;;25.90;8.43;;;;;;;9.31;nan;102221.88;5042706;28;20533;-48
2022/05/07 03:47:56;;;;;;;26.38;9.10;;;;;;;9.35;nan;102220.47;5046705;28;20100;-48
2022/05/07 03:50:21;;;;;;;17.92;8.10;;;;;;;9.39;nan;102213.66;5048826;28;20027;-50
2022/05/07 03:55:31;;;;;;;12.80;7.55;;;;;;;9.49;nan;102221.28;5048451;28;20124;-50
2022/05/07 03:57:56;;;;;;;18.67;7.82;;;;;;;9.52;nan;102212.88;5039867;28;20036;-50
2022/05/07 04:00:22;;;;;;;15.40;7.10;;;;;;;9.55;nan;102211.63;5048486;28;20053;-53
2022/05/07 04:02:48;;;;;;;14.48;6.43;;;;;;;9.59;nan;102216.34;5048717;28;20029;-50
2022/05/07 04:05:13;;;;;;;11.75;6.90;;;;;;;9.64;nan;102210.38;5051252;28;20463;-51
2022/05/07 04:07:39;;;;;;;12.23;7.07;;;;;;;9.69;nan;102215.91;5046765;28;21364;-52
2022/05/07 04:10:05;;;;;;;16.42;7.75;;;;;;;9.73;nan;102216.34;5048341;28;20093;-51
2022/05/07 04:12:31;;;;;;;12.48;6.90;;;;;;;9.77;nan;102229.13;5042238;28;20037;-53
2022/05/07 04:15:00;;;;;;;11.60;6.85;;;;;;;9.80;nan;102228.69;5043512;28;20035;-51
2022/05/07 04:17:26;;;;;;;12.05;6.68;;;;;;;9.85;nan;102212.00;5048093;28;20033;-51
2022/05/07 04:19:51;;;;;;;12.63;7.30;;;;;;;9.89;nan;102215.94;5042899;28;20107;-51
2022/05/07 04:22:17;;;;;;;11.30;6.63;;;;;;;9.92;nan;102220.88;5049721;28;20059;-55
2022/05/07 04:24:43;;;;;;;10.93;6.65;;;;;;;9.96;nan;102222.91;5043635;28;20043;-53
2022/05/07 04:27:09;;;;;;;14.50;7.00;;;;;;;10.02;nan;102215.06;5045440;28;20375;-50
2022/05/07 04:29:35;;;;;;;15.18;7.10;;;;;;;10.08;nan;102219.63;5051316;28;20040;-53
2022/05/07 04:32:00;;;;;;;13.40;7.65;;;;;;;10.14;nan;102218.78;5044075;28;20082;-52
2022/05/07 04:34:28;;;;;;;12.23;7.85;;;;;;;10.19;nan;102221.63;5045938;28;20036;-51
2022/05/07 04:36:54;;;;;;;13.27;7.22;;;;;;;10.26;nan;102220.63;5049672;28;20038;-52
2022/05/07 04:39:20;;;;;;;12.02;6.93;;;;;;;10.35;nan;102221.22;5049673;28;20024;-54
2022/05/07 04:41:46;;;;;;;11.30;6.93;;;;;;;10.44;nan;102224.50;5048943;28;20035;-49
2022/05/07 04:44:12;;;;;;;10.20;6.35;;;;;;;10.50;nan;102215.63;5048676;28;20091;-49
2022/05/07 04:46:39;;;;;;;12.65;7.20;;;;;;;10.54;nan;102222.19;5042595;28;20490;-50
2022/05/07 04:49:05;;;;;;;12.80;7.30;;;;;;;10.61;nan;102225.69;5052754;28;20059;-51
2022/05/07 04:51:31;;;;;;;9.50;6.97;;;;;;;10.68;nan;102221.13;5050662;28;20037;-49
2022/05/07 04:53:57;;;;;;;10.65;7.20;;;;;;;10.77;nan;102224.34;5045947;28;20016;-48
2022/05/07 04:56:24;;;;;;;10.35;6.53;;;;;;;10.83;nan;102218.97;5042909;28;20037;-51
2022/05/07 04:58:51;;;;;;;11.48;7.45;;;;;;;10.90;nan;102225.13;5048001;28;20090;-49
2022/05/07 05:01:17;;;;;;;11.90;6.78;;;;;;;10.98;nan;102223.25;5039732;28;20501;-54
2022/05/07 05:03:42;;;;;;;11.13;6.70;;;;;;;11.04;nan;102222.38;5043126;28;20017;-51
2022/05/07 05:06:09;;;;;;;11.98;7.18;;;;;;;11.10;nan;102230.38;5040209;28;20456;-54
2022/05/07 05:08:34;;;;;;;10.10;6.72;;;;;;;11.12;nan;102222.94;5040052;28;20034;-53
2022/05/07 05:11:00;;;;;;;10.90;6.68;;;;;;;11.16;nan;102224.16;5045840;28;20163;-48
2022/05/07 05:13:25;;;;;;;12.80;6.53;;;;;;;11.20;nan;102229.91;5049361;28;20498;-50
2022/05/07 05:15:51;;;;;;;9.70;6.82;;;;;;;11.27;nan;102232.56;5047726;28;20195;-51
2022/05/07 05:18:16;;;;;;;10.10;6.78;;;;;;;11.35;nan;102235.00;5041491;28;20029;-54
2022/05/07 05:20:42;;;;;;;9.40;6.35;;;;;;;11.43;nan;102224.81;5045673;28;20028;-53
2022/05/07 05:23:07;;;;;;;11.02;6.95;;;;;;;11.54;nan;102227.84;5052688;28;20039;-49
2022/05/07 05:25:33;;;;;;;16.15;7.35;;;;;;;11.58;nan;102229.03;5048448;28;20024;-55
2022/05/07 05:27:59;;;;;;;12.07;6.85;;;;;;;11.63;nan;102219.28;5047653;28;20032;-52
2022/05/07 05:30:24;;;;;;;9.52;6.35;;;;;;;11.70;nan;102227.28;5044023;28;20112;-53
2022/05/07 05:32:50;;;;;;;11.98;7.22;;;;;;;11.77;nan;102231.56;5047585;28;20024;-52
2022/05/07 05:35:15;;;;;;;12.35;7.20;;;;;;;11.86;nan;102217.91;5042533;28;20292;-48
2022/05/07 05:37:41;;;;;;;10.75;6.40;;;;;;;11.94;nan;102231.84;5038214;28;20082;-52
2022/05/07 05:40:07;;;;;;;9.02;6.05;;;;;;;11.98;nan;102233.06;5047173;28;20028;-49
2022/05/07 05:42:33;;;;;;;12.07;6.78;;;;;;;12.04;nan;102236.72;5050397;28;20029;-49
2022/05/07 05:44:58;;;;;;;9.77;5.68;;;;;;;12.08;nan;102228.00;5049064;28;20025;-50
2022/05/07 05:47:24;;;;;;;9.27;5.70;;;;;;;12.11;nan;102232.09;5050107;28;20079;-53
2022/05/07 05:49:50;;;;;;;8.27;4.90;;;;;;;12.15;nan;102227.94;5051478;28;20093;-51
2022/05/07 05:52:16;;;;;;;9.20;4.93;;;;;;;12.17;nan;102239.28;5045097;28;20029;-51
2022/05/07 05:54:41;;;;;;;6.68;5.38;;;;;;;12.21;nan;102236.94;5044986;28;20025;-51
2022/05/07 05:57:07;;;;;;;7.03;5.50;;;;;;;12.23;nan;102233.03;5049268;28;20028;-49
2022/05/07 05:59:33;;;;;;;7.82;5.57;;;;;;;12.27;nan;102225.34;5038570;28;20140;-52
2022/05/07 06:01:58;;;;;;;8.38;5.15;;;;;;;12.33;nan;102233.31;5039856;28;20036;-52
2022/05/07 06:04:24;;;;;;;7.80;5.75;;;;;;;12.37;nan;102226.44;5051618;28;20498;-51
2022/05/07 06:06:49;;;;;;;9.63;5.20;;;;;;;12.43;nan;102230.13;5045405;28;20032;-50
2022/05/07 06:09:15;;;;;;;8.70;5.20;;;;;;;12.47;nan;102235.88;5049775;28;20040;-52
2022/05/07 06:11:41;;;;;;;8.88;5.20;;;;;;;12.53;nan;102238.47;5048925;28;20033;-53
2022/05/07 06:14:07;;;;;;;8.88;4.95;;;;;;;12.60;nan;102241.09;5048930;28;20047;-49
2022/05/07 06:16:32;;;;;;;8.35;6.40;;;;;;;12.68;nan;102240.78;5050023;28;20032;-52
2022/05/07 06:18:59;;;;;;;7.10;5.45;;;;;;;12.74;nan;102234.47;5049863;28;20072;-49
2022/05/07 06:21:26;;;;;;;7.32;5.78;;;;;;;12.80;nan;102232.78;5039514;28;20022;-50
2022/05/07 06:23:52;;;;;;;8.65;5.30;;;;;;;12.86;nan;102230.00;5051302;28;20236;-54
2022/05/07 06:29:02;;;;;;;9.75;5.63;;;;;;;13.03;nan;102232.88;5052455;28;20461;-49
2022/05/07 06:31:29;;;;;;;8.98;5.00;;;;;;;13.10;nan;102240.84;5051496;28;20535;-49
2022/05/07 06:33:55;;;;;;;7.55;5.43;;;;;;;13.13;nan;102243.09;5048106;28;20086;-51
2022/05/07 06:36:20;;;;;;;8.27;5.60;;;;;;;13.15;nan;102243.69;5050939;28;20459;-49
2022/05/07 06:38:46;;;;;;;8.50;5.65;;;;;;;13.17;nan;102236.22;5050042;28;20486;-49
2022/05/07 06:41:11;;;;;;;10.43;5.70;;;;;;;13.17;nan;102241.59;5055104;28;20043;-49
2022/05/07 06:43:37;;;;;;;13.00;5.55;;;;;;;13.18;nan;102244.06;5043578;28;20071;-52
2022/05/07 06:46:03;;;;;;;9.32;5.78;;;;;;;13.24;nan;102245.84;5047111;28;20080;-51
2022/05/07 06:48:29;;;;;;;7.30;5.28;;;;;;;13.26;nan;102243.75;5051701;28;20035;-50
2022/05/07 06:50:55;;;;;;;8.38;6.18;;;;;;;13.32;nan;102241.19;5046437;28;20021;-54
2022/05/07 06:53:21;;;;;;;8.35;5.82;;;;;;;13.36;nan;102245.88;5038734;28;20056;-56
2022/05/07 06:55:56;;;;;;;8.40;6.43;;;;;;;13.38;nan;102245.66;5045704;28;20024;-52
2022/05/07 06:58:34;;;;;;;11.52;5.68;;;;;;;13.41;nan;102248.69;5039721;28;20441;-54
2022/05/07 07:01:01;;;;;;;10.70;6.18;;;;;;;13.53;nan;102251.44;5041518;28;20033;-53
2022/05/07 07:03:27;;;;;;;9.10;5.57;;;;;;;13.63;nan;102256.25;5040845;28;20033;-50
2022/05/07 07:05:55;;;;;;;11.68;6.00;;;;;;;13.73;nan;102253.81;5041317;28;20094;-53
2022/05/07 07:08:21;;;;;;;7.95;6.18;;;;;;;13.86;nan;102256.28;5047401;28;20314;-52
2022/05/07 07:10:47;;;;;;;7.78;5.68;;;;;;;13.99;nan;102261.44;5048379;28;20123;-49
2022/05/07 07:13:13;;;;;;;8.55;6.05;;;;;;;14.09;nan;102252.78;5050038;28;20496;-50
2022/05/07 07:15:42;;;;;;;12.05;6.07;;;;;;;14.20;nan;102262.75;5044673;28;20044;-55
2022/05/07 07:18:09;;;;;;;10.63;5.80;;;;;;;14.31;nan;102261.06;5060909;28;20036;-53
2022/05/07 07:20:39;;;;;;;10.57;6.82;;;;;;;14.45;nan;102249.84;5053248;28;20040;-54
2022/05/07 07:23:06;;;;;;;9.45;6.13;;;;;;;14.59;nan;102245.00;5054734;28;20055;-54
2022/05/07 07:25:32;;;;;;;9.25;6.63;;;;;;;14.70;nan;102249.53;5052179;28;20032;-49
2022/05/07 07:27:57;;;;;;;9.70;6.15;;;;;;;14.80;nan;102247.06;5048980;28;20543;-51
2022/05/07 07:30:23;;;;;;;9.02;6.18;;;;;;;14.93;nan;102253.25;5048322;28;20103;-51
2022/05/07 07:32:48;;;;;;;8.60;6.25;;;;;;;15.07;nan;102251.88;5058857;28;20329;-49
2022/05/07 07:35:14;;;;;;;10.30;5.90;;;;;;;15.23;nan;102242.19;5050524;28;20029;-51
2022/05/07 07:37:39;;;;;;;9.15;6.38;;;;;;;15.40;nan;102245.72;5044969;28;20025;-49
2022/05/07 07:40:05;;;;;;;11.60;6.50;;;;;;;15.58;nan;102248.19;5053084;28;20463;-51
2022/05/07 07:42:31;;;;;;;9.50;6.53;;;;;;;15.68;nan;102243.00;5045931;28;20032;-52
2022/05/07 07:50:29;;;;;;;10.13;6.05;;;;;;;16.02;nan;102243.00;5054259;28;20109;-51
2022/05/07 07:52:55;;;;;;;9.63;6.50;;;;;;;16.15;nan;102242.63;5046851;28;20037;-51
2022/05/07 07:55:22;;;;;;;9.30;6.47;;;;;;;16.31;nan;102243.66;5043971;28;20532;-49
2022/05/07 07:57:48;;;;;;;11.55;6.68;;;;;;;16.44;nan;102237.06;5038232;28;20246;-51
2022/05/07 08:00:14;;;;;;;10.68;6.78;;;;;;;16.60;nan;102234.28;5039248;28;20764;-54
2022/05/07 08:02:51;;;;;;;11.43;6.53;;;;;;;16.70;nan;102238.25;5054621;28;20078;-49
2022/05/07 08:05:17;;;;;;;9.63;7.05;;;;;;;16.85;nan;102238.38;5046740;28;20048;-47
2022/05/07 08:13:11;;;;;;;10.55;6.03;;;;;;;17.41;nan;102236.25;5049393;28;20089;-48
2022/05/07 08:15:38;;;;;;;9.15;5.93;;;;;;;17.48;nan;102239.56;5046996;28;20040;-48
2022/05/07 08:18:05;;;;;;;13.77;6.80;;;;;;;17.62;nan;102243.50;5046936;28;20044;-49
2022/05/07 08:20:30;;;;;;;9.95;6.45;;;;;;;17.95;nan;102233.44;5048897;28;20035;-49
2022/05/07 08:22:56;;;;;;;7.85;5.57;;;;;;;18.19;nan;102240.13;5051484;28;20021;-48
2022/05/07 08:25:22;;;;;;;8.07;5.43;;;;;;;18.29;nan;102234.72;5042483;28;20120;-47
2022/05/07 08:27:48;;;;;;;6.68;5.25;;;;;;;18.38;nan;102232.34;5044214;28;20056;-49
2022/05/07 08:30:13;;;;;;;7.93;5.53;;;;;;;18.46;nan;102229.09;5050282;28;20624;-47
2022/05/07 08:32:39;;;;;;;6.43;5.18;;;;;;;18.61;nan;102228.34;5050572;28;20371;-48
2022/05/07 08:35:05;;;;;;;10.13;5.53;;;;;;;18.79;nan;102237.94;5042175;28;20086;-48
2022/05/07 08:37:30;;;;;;;6.78;5.50;;;;;;;18.88;nan;102231.75;5047164;28;20024;-49
2022/05/07 08:40:01;;;;;;;8.82;5.35;;;;;;;18.95;nan;102231.47;5048881;28;20029;-48
2022/05/07 08:42:29;;;;;;;15.35;8.25;;;;;;;18.98;nan;102234.47;5050937;28;20045;-48
2022/05/07 08:44:57;;;;;;;7.65;6.03;;;;;;;19.04;nan;102239.94;5048755;28;20037;-49
2022/05/07 08:47:23;;;;;;;13.10;6.13;;;;;;;19.22;nan;102234.81;5047195;28;20020;-49
2022/05/07 08:49:55;;;;;;;7.05;5.15;;;;;;;19.48;nan;102238.34;5050247;28;20489;-49
2022/05/07 08:52:22;;;;;;;7.22;4.93;;;;;;;19.73;nan;102239.44;5051508;28;20031;-49
2022/05/07 08:54:48;;;;;;;6.47;5.38;;;;;;;19.94;nan;102243.78;5045668;28;20040;-47
2022/05/07 08:57:14;;;;;;;6.95;4.53;;;;;;;20.02;nan;102243.22;5046585;28;20029;-48
2022/05/07 08:59:40;;;;;;;6.72;4.22;;;;;;;20.31;nan;102243.44;5048565;28;20124;-49
2022/05/07 09:02:06;;;;;;;7.35;4.53;;;;;;;20.24;nan;102237.44;5046980;28;20115;-49
2022/05/07 09:04:32;;;;;;;5.10;4.07;;;;;;;20.27;nan;102236.06;5046378;28;20859;-48
2022/05/07 09:07:01;;;;;;;9.98;4.35;;;;;;;20.46;nan;102239.84;5048526;28;20025;-48
2022/05/07 09:09:30;;;;;;;5.10;4.03;;;;;;;20.72;nan;102244.09;5045461;28;20021;-48
2022/05/07 09:11:56;;;;;;;8.32;4.18;;;;;;;20.94;nan;102238.25;5048911;28;20048;-47
2022/05/07 09:14:28;;;;;;;11.05;4.03;;;;;;;20.98;nan;102238.50;5046345;28;20021;-50
2022/05/07 09:16:59;;;;;;;9.00;4.38;;;;;;;21.10;nan;102238.97;5043034;28;20033;-48
2022/05/07 09:19:33;;;;;;;5.57;4.30;;;;;;;21.32;nan;102249.47;5048485;28;20028;-50
2022/05/07 09:22:09;;;;;;;8.50;5.20;;;;;;;21.62;nan;102245.69;5045050;28;20642;-48
2022/05/07 09:24:35;;;;;;;5.35;4.60;;;;;;;21.67;nan;102246.47;5046252;28;20136;-47
2022/05/07 09:27:03;;;;;;;8.45;5.35;;;;;;;21.74;nan;102248.88;5045747;28;20520;-50
2022/05/07 09:29:30;;;;;;;21.13;5.78;;;;;;;22.06;nan;102247.47;5044646;28;20074;-49
2022/05/07 09:32:07;;;;;;;8.68;4.88;;;;;;;22.22;nan;102251.69;5046657;28;20025;-49
2022/05/07 09:37:19;;;;;;;5.22;4.10;;;;;;;22.61;nan;102232.34;5043224;28;20750;-49
2022/05/07 09:39:47;;;;;;;5.35;4.22;;;;;;;22.57;nan;102240.31;5044698;28;20047;-48
2022/05/07 09:42:16;;;;;;;5.78;4.63;;;;;;;22.35;nan;102242.00;5042263;28;21789;-48
2022/05/07 09:44:43;;;;;;;7.38;4.93;;;;;;;22.54;nan;102240.91;5050601;28;20017;-48
2022/05/07 09:47:12;;;;;;;10.82;5.60;;;;;;;22.51;nan;102235.22;5051578;28;20020;-48
2022/05/07 09:50:19;;;;;;;8.38;4.97;;;;;;;22.68;nan;102238.28;5051646;28;20037;-48
2022/05/07 09:52:28;;;;;;;8.70;5.07;;;;;;;22.80;nan;102233.22;5056307;28;20032;-50
2022/05/07 09:57:39;;;;;;;8.52;4.88;;;;;;;22.89;nan;102230.66;5053857;28;20105;-49
2022/05/07 10:00:11;;;;;;;8.68;4.97;;;;;;;23.00;nan;102226.69;5051148;28;20477;-48
2022/05/07 10:03:01;;;;;;;5.75;4.40;;;;;;;22.87;nan;102227.41;5048184;28;20100;-47
2022/05/07 10:05:29;;;;;;;11.43;5.03;;;;;;;22.71;nan;102232.22;5046703;28;20052;-48
2022/05/07 10:08:20;;;;;;;5.65;4.20;;;;;;;22.68;nan;102218.34;5045347;28;20082;-47
2022/05/07 10:10:48;;;;;;;5.32;3.67;;;;;;;22.96;nan;102219.34;5049308;28;20024;-49
2022/05/07 10:13:18;;;;;;;4.72;3.80;;;;;;;22.93;nan;102215.28;5053225;28;20017;-48
2022/05/07 10:15:45;;;;;;;7.97;3.80;;;;;;;23.12;nan;102223.47;5055564;28;20081;-47
2022/05/07 10:18:20;;;;;;;7.75;4.30;;;;;;;23.25;nan;102220.00;5056724;28;20394;-48
2022/05/07 10:20:48;;;;;;;6.30;4.10;;;;;;;23.59;nan;102211.53;5049954;28;20414;-48
2022/05/07 10:23:15;;;;;;;6.10;3.22;;;;;;;23.71;nan;102211.06;5060538;28;20521;-48
2022/05/07 10:25:43;;;;;;;4.97;3.42;;;;;;;23.70;nan;102217.63;5043653;28;20132;-48
2022/05/07 10:28:15;;;;;;;5.93;3.85;;;;;;;23.83;nan;102211.34;5052484;28;20112;-48
2022/05/07 10:30:54;;;;;;;5.72;4.03;;;;;;;23.90;nan;102222.72;5047254;28;20435;-48
2022/05/07 10:33:21;;;;;;;5.38;4.10;;;;;;;24.05;nan;102219.69;5052729;28;20028;-51
2022/05/07 10:35:55;;;;;;;6.60;3.88;;;;;;;24.02;nan;102222.22;5056681;28;20040;-48
2022/05/07 10:38:23;;;;;;;8.30;4.28;;;;;;;24.01;nan;102226.06;5052954;28;20031;-47
2022/05/07 10:40:54;;;;;;;5.93;4.30;;;;;;;23.61;nan;102214.75;5060429;28;20036;-49
2022/05/07 10:43:30;;;;;;;8.00;4.75;;;;;;;23.47;nan;102214.69;5049749;28;20041;-48
2022/05/07 10:46:00;;;;;;;5.65;4.30;;;;;;;23.52;nan;102211.88;5042375;28;20060;-48
2022/05/07 10:48:26;;;;;;;5.63;4.22;;;;;;;23.56;nan;102212.09;5053363;28;20021;-48
2022/05/07 10:50:53;;;;;;;5.35;4.35;;;;;;;23.76;nan;102216.41;5045281;28;20029;-48
2022/05/07 10:53:20;;;;;;;6.78;4.38;;;;;;;23.93;nan;102213.09;5048861;28;20414;-47
2022/05/07 10:55:46;;;;;;;7.47;5.47;;;;;;;23.76;nan;102211.75;5049706;28;20040;-48
2022/05/07 10:58:11;;;;;;;7.85;4.25;;;;;;;23.69;nan;102203.09;5044672;28;20409;-48
2022/05/07 11:00:37;;;;;;;5.18;4.55;;;;;;;23.83;nan;102205.06;5049929;28;20089;-49
2022/05/07 11:03:03;;;;;;;4.63;3.67;;;;;;;24.07;nan;102202.97;5051265;28;20267;-48
2022/05/07 11:05:33;;;;;;;6.40;4.15;;;;;;;24.03;nan;102207.41;5050647;28;20453;-48
2022/05/07 11:07:59;;;;;;;8.18;4.40;;;;;;;23.72;nan;102199.00;5046450;28;20025;-48
2022/05/07 11:10:25;;;;;;;4.82;4.00;;;;;;;23.66;nan;102203.72;5049273;28;20035;-48
2022/05/07 11:12:51;;;;;;;5.53;3.70;;;;;;;23.57;nan;102202.00;5056002;28;20406;-49
2022/05/07 11:15:24;;;;;;;7.28;4.40;;;;;;;23.23;nan;102197.59;5051084;28;20074;-50
2022/05/07 11:17:50;;;;;;;6.57;4.00;;;;;;;23.06;nan;102202.78;5044412;28;20035;-48
2022/05/07 11:20:16;;;;;;;5.38;4.07;;;;;;;22.92;nan;102202.72;5051238;28;20219;-48
2022/05/07 11:22:42;;;;;;;6.50;4.40;;;;;;;23.02;nan;102199.84;5046313;28;20056;-49
2022/05/07 11:25:08;;;;;;;10.95;4.53;;;;;;;23.10;nan;102190.97;5050576;28;20033;-48
2022/05/07 11:27:34;;;;;;;6.70;4.05;;;;;;;23.27;nan;102192.34;5048973;28;20613;-48
2022/05/07 11:30:03;;;;;;;4.20;3.38;;;;;;;23.64;nan;102197.75;5046394;28;20123;-47
2022/05/07 11:32:37;;;;;;;10.23;4.32;;;;;;;23.61;nan;102197.53;5047678;28;20028;-48
2022/05/07 11:35:03;;;;;;;4.40;3.50;;;;;;;23.87;nan;102195.13;5047594;28;20029;-49
2022/05/07 11:37:40;;;;;;;5.85;3.30;;;;;;;24.19;nan;102184.09;5049788;28;20040;-48
2022/05/07 11:40:06;;;;;;;6.50;3.78;;;;;;;24.22;nan;102185.41;5046871;28;20025;-50
2022/05/07 11:42:43;;;;;;;5.90;3.72;;;;;;;24.19;nan;102184.09;5046592;28;20545;-48
2022/05/07 11:45:33;;;;;;;9.43;3.97;;;;;;;24.30;nan;102169.09;5052802;28;20090;-49
2022/05/07 11:48:23;;;;;;;6.00;3.60;;;;;;;24.41;nan;102167.75;5049168;28;20466;-48
2022/05/07 11:50:54;;;;;;;4.05;3.50;;;;;;;24.17;nan;102174.56;5046459;28;20029;-49
2022/05/07 11:53:22;;;;;;;7.60;3.65;;;;;;;24.18;nan;102168.78;5045932;28;20021;-47
2022/05/07 11:55:49;;;;;;;6.55;3.38;;;;;;;24.15;nan;102174.88;5043959;28;20132;-50
2022/05/07 11:58:24;;;;;;;6.85;3.60;;;;;;;23.88;nan;102172.13;5037610;28;20029;-48
2022/05/07 12:00:52;;;;;;;13.20;3.80;;;;;;;23.97;nan;102176.59;5046835;28;20501;-48
2022/05/07 12:03:18;;;;;;;6.78;3.50;;;;;;;23.84;nan;102168.38;5052156;28;20020;-48
2022/05/07 12:05:47;;;;;;;4.80;3.35;;;;;;;23.64;nan;102162.16;5051249;28;20066;-48
2022/05/07 12:08:17;;;;;;;3.78;2.97;;;;;;;23.66;nan;102167.34;5045792;28;20086;-47